Terminal Aerodrome Forecast
Issued by NWS Cleveland, OH

Home | Current Version | Previous Version | Graphics & Text | Print | Product List | Glossary Off
Versions: 1 2 3 4 5 6 7 8 9 10 11 12 13 14 15

000
FTUS41 KCLE 032109 AAA
TAFYNG
TAF AMD
KYNG 032109Z 0321/0418 28009KT P6SM VCSH BKN045
     FM040100 25005KT P6SM SCT045
     FM041500 26011KT P6SM BKN045=

USA.gov is the U.S. government's official web portal to all federal, state and local government web resources and services.